Albany, New York
Traffic Map
Current Weather Conditions
Albany, New York
Overcast
Overcast
11°
Feels Like: 11°
Wind Chill: 11° Ceiling: 3800
Heat Index: 11° Visibility: 10mi
Dew Point: Wind: 14mph
Humidity: 63% Direction: 320° (NW)
Pressure: 29.74in Gusts: 0mph
Raw Report DataKALB 280151Z 32012KT 10SM BKN038 OVC050 11/04 A2974 RMK AO2 RAB0056E42 SLP072 P0000 T01060039
Traffic Incident Summary
Active as of:
Severity:
Category:
InformationThere was an issue retrieving the traffic information for this location. Please try a different location or try again shortly.
Advertisements
Track Severe Weather on mobile